createdAt,value
2022-09-02T00:02:26.972Z,31.21
2022-09-02T00:05:09.705Z,31.34
2022-09-02T00:07:58.212Z,31.30
2022-09-02T00:10:49.197Z,31.31
2022-09-02T00:13:30.901Z,31.31
2022-09-02T00:16:20.659Z,31.32
2022-09-02T00:19:03.989Z,31.30
2022-09-02T00:21:52.961Z,31.27
2022-09-02T00:24:35.584Z,31.28
2022-09-02T00:27:25.146Z,31.28
2022-09-02T00:30:07.194Z,31.24
2022-09-02T00:32:56.031Z,31.27
2022-09-02T00:35:39.585Z,31.22
2022-09-02T00:38:28.278Z,31.21
2022-09-02T00:41:14.395Z,31.16
2022-09-02T00:44:08.007Z,31.16
2022-09-02T00:46:51.238Z,31.14
2022-09-02T00:49:45.897Z,31.15
2022-09-02T00:52:39.243Z,31.17
2022-09-02T00:55:34.218Z,31.12
2022-09-02T00:58:27.824Z,31.12
2022-09-02T01:01:09.303Z,31.16
2022-09-02T01:04:05.854Z,31.15
2022-09-02T01:06:53.989Z,31.12
2022-09-02T01:09:37.019Z,31.15
2022-09-02T01:12:26.229Z,31.18
2022-09-02T01:15:08.269Z,31.16
2022-09-02T01:17:59.266Z,31.23
2022-09-02T01:20:43.479Z,31.21
2022-09-02T01:23:31.246Z,31.32
2022-09-02T01:26:18.456Z,31.44
2022-09-02T01:29:08.003Z,31.38
2022-09-02T01:31:50.652Z,31.39
2022-09-02T01:34:39.230Z,31.42
2022-09-02T01:37:21.283Z,31.45
2022-09-02T01:40:10.048Z,31.50
2022-09-02T01:42:54.523Z,31.56
2022-09-02T01:45:48.242Z,31.64
2022-09-02T01:48:32.638Z,31.71
2022-09-02T01:51:25.228Z,31.77
2022-09-02T01:54:09.285Z,31.84
2022-09-02T01:56:58.253Z,31.95
2022-09-02T01:59:40.582Z,32.01
2022-09-02T02:02:37.912Z,32.07
2022-09-02T02:05:34.148Z,32.23
2022-09-02T02:08:23.774Z,32.24
2022-09-02T02:11:08.894Z,32.32
2022-09-02T02:13:57.877Z,32.48
2022-09-02T02:16:40.594Z,32.56
2022-09-02T02:19:29.150Z,32.56
2022-09-02T02:22:14.779Z,32.71
2022-09-02T02:25:03.406Z,32.86
2022-09-02T02:27:45.873Z,32.98
2022-09-02T02:30:34.474Z,33.02
2022-09-02T02:33:18.537Z,33.07
2022-09-02T02:36:07.237Z,33.09
2022-09-02T02:38:55.891Z,33.11
2022-09-02T02:41:46.172Z,33.03
2022-09-02T02:44:28.587Z,33.09
2022-09-02T02:47:18.292Z,33.08
2022-09-02T02:50:00.143Z,33.06
2022-09-02T02:52:50.225Z,33.01
2022-09-02T02:55:34.532Z,32.95
2022-09-02T02:58:23.154Z,33.02
2022-09-02T03:01:12.856Z,33.12
2022-09-02T03:04:08.089Z,33.08
2022-09-02T03:07:04.117Z,33.09
2022-09-02T03:09:52.977Z,33.06
2022-09-02T03:12:35.382Z,33.07
2022-09-02T03:15:27.137Z,33.17
2022-09-02T03:18:16.216Z,33.14
2022-09-02T03:21:05.006Z,33.18
2022-09-02T03:23:53.978Z,33.15
2022-09-02T03:26:42.987Z,33.27
2022-09-02T03:29:27.516Z,33.45
2022-09-02T03:32:17.222Z,33.42
2022-09-02T03:34:59.510Z,33.49
2022-09-02T03:37:50.218Z,33.74
2022-09-02T03:40:42.324Z,33.62
2022-09-02T03:43:30.874Z,33.66
2022-09-02T03:46:14.902Z,33.78
2022-09-02T03:49:05.218Z,33.99
2022-09-02T03:51:49.538Z,34.01
2022-09-02T03:54:37.929Z,34.08
2022-09-02T03:57:21.449Z,34.04
2022-09-02T04:00:12.209Z,34.00
2022-09-02T04:02:56.298Z,34.13
2022-09-02T04:05:47.250Z,34.07
2022-09-02T04:08:44.985Z,34.22
2022-09-02T04:11:40.848Z,34.24
2022-09-02T04:14:34.963Z,34.09
2022-09-02T04:17:18.047Z,34.51
2022-09-02T04:20:10.231Z,34.61
2022-09-02T04:22:52.324Z,34.70
2022-09-02T04:25:42.232Z,34.75
2022-09-02T04:28:26.088Z,34.93
2022-09-02T04:31:18.193Z,35.01
2022-09-02T04:34:02.048Z,35.53
2022-09-02T04:36:51.958Z,35.87
2022-09-02T04:39:40.986Z,36.09
2022-09-02T04:42:23.267Z,36.40
2022-09-02T04:45:13.024Z,36.64
2022-09-02T04:47:55.474Z,37.00
2022-09-02T04:50:46.981Z,37.28
2022-09-02T04:53:29.173Z,37.55
2022-09-02T04:56:21.257Z,37.46
2022-09-02T04:59:12.008Z,37.68
2022-09-02T05:02:02.327Z,37.96
2022-09-02T05:04:52.148Z,38.19
2022-09-02T05:07:46.146Z,38.13
2022-09-02T05:10:29.857Z,38.25
2022-09-02T05:13:18.667Z,38.46
2022-09-02T05:16:08.009Z,38.67
2022-09-02T05:18:51.929Z,38.75
2022-09-02T05:21:54.998Z,38.64
2022-09-02T05:24:44.518Z,38.52
2022-09-02T05:27:34.209Z,38.40
2022-09-02T05:30:24.498Z,38.91
2022-09-02T05:33:06.267Z,38.87
2022-09-02T05:35:56.048Z,39.08
2022-09-02T05:38:44.226Z,38.87
2022-09-02T05:41:34.247Z,38.91
2022-09-02T05:44:18.900Z,39.01
2022-09-02T05:47:08.878Z,39.04
2022-09-02T05:49:52.188Z,38.70
2022-09-02T05:52:41.255Z,38.78
2022-09-02T05:55:23.263Z,39.01
2022-09-02T05:58:12.263Z,39.33
2022-09-02T06:00:54.522Z,39.57
2022-09-02T06:03:42.999Z,38.99
2022-09-02T06:06:25.773Z,38.55
2022-09-02T06:09:16.256Z,38.69
2022-09-02T06:11:59.457Z,38.42
2022-09-02T06:14:57.021Z,38.78
2022-09-02T06:17:45.247Z,38.93
2022-09-02T06:20:27.246Z,38.99
2022-09-02T06:23:17.246Z,39.05
2022-09-02T06:26:00.184Z,39.22
2022-09-02T06:28:49.012Z,38.82
2022-09-02T06:31:34.715Z,38.53
2022-09-02T06:34:27.150Z,38.66
2022-09-02T06:37:09.274Z,38.74
2022-09-02T06:39:59.229Z,38.14
2022-09-02T06:42:41.699Z,38.56
2022-09-02T06:45:51.227Z,38.43
2022-09-02T06:48:33.267Z,38.46
2022-09-02T06:51:32.238Z,38.67
2022-09-02T06:54:18.312Z,38.73
2022-09-02T06:57:19.133Z,38.38
2022-09-02T07:00:07.884Z,38.64
2022-09-02T07:03:10.897Z,38.56
2022-09-02T07:06:00.255Z,38.66
2022-09-02T07:08:51.551Z,38.80
2022-09-02T07:11:34.005Z,38.60
2022-09-02T07:14:37.844Z,38.57
2022-09-02T07:17:34.255Z,39.08
2022-09-02T07:20:32.191Z,39.04
2022-09-02T07:23:20.985Z,39.18
2022-09-02T07:26:09.276Z,39.01
2022-09-02T07:28:54.848Z,39.15
2022-09-02T07:31:42.194Z,39.17
2022-09-02T07:34:33.897Z,38.84
2022-09-02T07:37:17.043Z,39.17
2022-09-02T07:40:06.370Z,39.29
2022-09-02T07:42:55.268Z,39.26
2022-09-02T07:45:40.270Z,38.93
2022-09-02T07:48:22.729Z,38.83
2022-09-02T07:51:13.138Z,38.98
2022-09-02T07:54:03.220Z,38.68
2022-09-02T07:56:45.281Z,38.71
2022-09-02T07:59:33.909Z,38.89
2022-09-02T08:02:17.761Z,38.78
2022-09-02T08:05:08.121Z,38.67
2022-09-02T08:07:50.407Z,38.81
2022-09-02T08:10:40.269Z,38.96
2022-09-02T08:13:27.003Z,38.70
2022-09-02T08:16:16.189Z,38.49
2022-09-02T08:18:59.270Z,38.26
2022-09-02T08:21:47.894Z,38.78
2022-09-02T08:24:37.009Z,38.23
2022-09-02T08:27:27.407Z,38.43
2022-09-02T08:30:10.245Z,38.26
2022-09-02T08:32:58.723Z,38.31
2022-09-02T08:35:41.016Z,38.63
2022-09-02T08:38:23.470Z,38.41
2022-09-02T08:41:11.993Z,38.09
2022-09-02T08:44:05.912Z,37.86
2022-09-02T08:46:48.901Z,38.20
2022-09-02T08:49:45.873Z,38.08
2022-09-02T08:52:48.251Z,38.02
2022-09-02T08:55:44.539Z,37.73
2022-09-02T08:58:31.999Z,38.03
2022-09-02T09:01:47.558Z,37.81
2022-09-02T09:04:41.277Z,37.94
2022-09-02T09:08:03.337Z,37.70
2022-09-02T09:11:05.173Z,37.69
2022-09-02T09:14:02.184Z,37.73
2022-09-02T09:17:00.201Z,37.71
2022-09-02T09:19:50.590Z,37.48
2022-09-02T09:22:44.966Z,37.58
2022-09-02T09:25:33.382Z,37.59
2022-09-02T09:28:22.245Z,37.47
2022-09-02T09:31:04.287Z,37.26
2022-09-02T09:34:12.874Z,37.32
2022-09-02T09:37:01.314Z,37.16
2022-09-02T09:39:49.887Z,37.04
2022-09-02T09:42:49.592Z,37.05
2022-09-02T09:45:40.011Z,36.63
2022-09-02T09:48:34.907Z,36.60
2022-09-02T09:51:24.206Z,36.71
2022-09-02T09:54:26.155Z,36.68
2022-09-02T09:57:35.606Z,36.76
2022-09-02T10:00:33.343Z,36.69
2022-09-02T10:03:50.546Z,36.73
2022-09-02T10:06:47.133Z,37.14
2022-09-02T10:09:35.550Z,37.19
2022-09-02T10:12:27.866Z,37.28
2022-09-02T10:15:16.666Z,37.18
2022-09-02T10:18:15.193Z,37.28
2022-09-02T10:21:22.089Z,37.22
2022-09-02T10:24:41.215Z,37.19
2022-09-02T10:27:28.767Z,37.40
2022-09-02T10:30:29.137Z,37.12
2022-09-02T10:33:33.257Z,37.11
2022-09-02T10:37:06.092Z,37.29
2022-09-02T10:40:17.180Z,37.23
2022-09-02T10:43:16.009Z,37.15
2022-09-02T10:46:09.282Z,37.09
2022-09-02T10:49:28.286Z,37.17
2022-09-02T10:52:33.043Z,36.95
2022-09-02T10:55:15.538Z,36.95
2022-09-02T10:58:40.998Z,36.77
2022-09-02T11:01:40.892Z,37.06
2022-09-02T11:04:46.961Z,36.99
2022-09-02T11:07:36.396Z,36.93
2022-09-02T11:10:43.036Z,36.98
2022-09-02T11:13:53.151Z,37.08
2022-09-02T11:16:49.006Z,36.80
2022-09-02T11:19:53.062Z,37.09
2022-09-02T11:22:54.273Z,37.15
2022-09-02T11:25:50.518Z,36.93
2022-09-02T11:29:10.008Z,36.90
2022-09-02T11:32:07.403Z,36.86
2022-09-02T11:35:05.251Z,36.70
2022-09-02T11:38:32.312Z,36.73
2022-09-02T11:41:53.054Z,36.63
2022-09-02T11:45:03.513Z,36.42
2022-09-02T11:48:21.326Z,36.23
2022-09-02T11:51:30.429Z,36.32
2022-09-02T11:54:20.899Z,36.29
2022-09-02T11:57:07.051Z,36.36
2022-09-02T12:00:07.977Z,36.32
2022-09-02T12:03:58.630Z,36.27
2022-09-02T12:06:37.320Z,36.23
2022-09-02T12:09:52.160Z,36.42
2022-09-02T12:12:53.892Z,36.31
2022-09-02T12:15:36.800Z,36.24
2022-09-02T12:18:26.066Z,36.32
2022-09-02T12:21:23.108Z,36.43
2022-09-02T12:24:11.972Z,36.26
2022-09-02T12:26:54.274Z,36.17
2022-09-02T12:29:43.234Z,36.20
2022-09-02T12:32:53.934Z,36.33
2022-09-02T12:36:05.891Z,36.07
2022-09-02T12:38:54.502Z,36.02
2022-09-02T12:41:41.271Z,35.84
2022-09-02T12:44:55.959Z,35.98
2022-09-02T12:48:28.716Z,35.93
2022-09-02T12:52:12.182Z,35.93
2022-09-02T12:54:57.528Z,35.91
2022-09-02T12:57:52.218Z,35.78
2022-09-02T13:01:09.030Z,35.68
2022-09-02T13:04:16.147Z,35.53
2022-09-02T13:07:35.045Z,35.57
2022-09-02T13:10:30.584Z,35.25
2022-09-02T13:13:18.295Z,35.38
2022-09-02T13:16:23.430Z,35.57
2022-09-02T13:19:24.135Z,35.66
2022-09-02T13:22:37.830Z,35.61
2022-09-02T13:25:38.289Z,35.58
2022-09-02T13:28:53.999Z,35.58
2022-09-02T13:31:43.869Z,35.45
2022-09-02T13:34:26.890Z,35.41
2022-09-02T13:37:36.589Z,35.49
2022-09-02T13:40:26.561Z,35.47
2022-09-02T13:43:20.986Z,35.37
2022-09-02T13:46:15.287Z,35.33
2022-09-02T13:49:03.905Z,35.38
2022-09-02T13:51:58.996Z,35.20
2022-09-02T13:55:01.044Z,35.19
2022-09-02T13:57:45.245Z,35.25
2022-09-02T14:00:49.434Z,35.16
2022-09-02T14:03:31.993Z,35.42
2022-09-02T14:06:20.560Z,35.54
2022-09-02T14:09:08.944Z,35.50
2022-09-02T14:11:58.523Z,35.47
2022-09-02T14:14:42.298Z,35.30
2022-09-02T14:22:16.417Z,35.28
2022-09-02T14:25:05.220Z,35.23
2022-09-02T14:27:48.862Z,35.25
2022-09-02T14:30:48.316Z,35.15
2022-09-02T14:33:49.527Z,35.00
2022-09-02T14:36:35.206Z,34.87
2022-09-02T14:39:20.075Z,34.80
2022-09-02T14:42:10.961Z,34.71
2022-09-02T14:44:53.223Z,34.62
2022-09-02T14:47:49.246Z,34.62
2022-09-02T14:50:36.613Z,34.60
2022-09-02T14:53:34.227Z,34.40
2022-09-02T14:56:22.574Z,34.28
2022-09-02T14:59:04.134Z,34.31
2022-09-02T15:01:55.926Z,34.31
2022-09-02T15:04:38.593Z,34.14
2022-09-02T15:07:27.284Z,34.12
2022-09-02T15:10:10.442Z,34.02
2022-09-02T15:13:01.899Z,34.05
2022-09-02T15:15:54.301Z,33.98
2022-09-02T15:18:36.354Z,34.01
2022-09-02T15:21:31.994Z,33.94
2022-09-02T15:24:21.263Z,34.03
2022-09-02T15:27:10.371Z,33.79
2022-09-02T15:29:59.593Z,33.39
2022-09-02T15:32:42.039Z,33.18
2022-09-02T15:35:24.264Z,33.25
2022-09-02T15:38:13.272Z,33.53
2022-09-02T15:41:01.949Z,33.17
2022-09-02T15:43:46.252Z,32.89
2022-09-02T15:46:38.438Z,32.87
2022-09-02T15:49:23.064Z,32.86
2022-09-02T15:52:05.739Z,32.56
2022-09-02T15:54:53.947Z,32.65
2022-09-02T15:57:42.531Z,32.46
2022-09-02T16:00:27.746Z,32.39
2022-09-02T16:03:17.911Z,32.38
2022-09-02T16:06:06.876Z,32.02
2022-09-02T16:08:56.707Z,32.48
2022-09-02T16:11:38.992Z,32.25
2022-09-02T16:14:22.935Z,32.38
2022-09-02T16:17:12.141Z,32.39
2022-09-02T16:19:54.997Z,32.18
2022-09-02T16:22:50.018Z,32.10
2022-09-02T16:25:32.838Z,31.90
2022-09-02T16:28:22.997Z,32.04
2022-09-02T16:31:13.134Z,32.02
2022-09-02T16:34:14.273Z,32.04
2022-09-02T16:36:56.553Z,31.78
2022-09-02T16:39:45.022Z,31.83
2022-09-02T16:42:38.139Z,31.86
2022-09-02T16:45:19.979Z,31.92
2022-09-02T16:48:08.454Z,31.88
2022-09-02T16:50:51.283Z,31.95
2022-09-02T16:53:34.295Z,31.64
2022-09-02T16:56:30.954Z,31.47
2022-09-02T16:59:21.253Z,31.44
2022-09-02T17:02:03.799Z,31.17
2022-09-02T17:04:53.229Z,31.44
2022-09-02T17:07:35.447Z,31.51
2022-09-02T17:10:24.025Z,31.58
2022-09-02T17:13:06.396Z,31.52
2022-09-02T17:15:54.916Z,31.59
2022-09-02T17:18:37.625Z,31.54
2022-09-02T17:21:35.225Z,31.56
2022-09-02T17:24:24.762Z,31.55
2022-09-02T17:27:08.339Z,31.20
2022-09-02T17:29:58.469Z,31.11
2022-09-02T17:32:41.034Z,31.11
2022-09-02T17:35:29.804Z,31.13
2022-09-02T17:38:12.219Z,31.23
2022-09-02T17:41:12.307Z,31.25
2022-09-02T17:44:00.961Z,31.45
2022-09-02T17:46:51.011Z,31.41
2022-09-02T17:49:33.667Z,31.05
2022-09-02T17:52:27.910Z,31.24
2022-09-02T17:55:17.002Z,31.43
2022-09-02T17:58:22.455Z,31.50
2022-09-02T18:01:16.055Z,31.37
2022-09-02T18:04:34.770Z,31.27
2022-09-02T18:07:47.975Z,31.34
2022-09-02T18:10:38.189Z,31.31
2022-09-02T18:13:32.222Z,31.36
2022-09-02T18:16:15.186Z,31.26
2022-09-02T18:19:13.985Z,30.97
2022-09-02T18:22:29.984Z,31.27
2022-09-02T18:25:43.789Z,31.29
2022-09-02T18:29:04.002Z,31.49
2022-09-02T18:32:13.779Z,31.42
2022-09-02T18:35:46.062Z,31.51
2022-09-02T18:38:50.482Z,31.28
2022-09-02T18:41:44.208Z,30.89
2022-09-02T18:44:43.942Z,31.10
2022-09-02T18:47:33.421Z,31.28
2022-09-02T18:50:31.958Z,31.24
2022-09-02T18:53:31.231Z,31.39
2022-09-02T18:56:23.970Z,31.18
2022-09-02T18:59:12.985Z,31.44
2022-09-02T19:02:06.092Z,31.44
2022-09-02T19:04:55.441Z,31.37
2022-09-02T19:07:54.975Z,31.28
2022-09-02T19:10:44.236Z,31.25
2022-09-02T19:13:28.758Z,31.30
2022-09-02T19:16:17.301Z,31.17
2022-09-02T19:18:59.411Z,31.20
2022-09-02T19:21:59.318Z,31.28
2022-09-02T19:24:59.032Z,31.34
2022-09-02T19:27:44.881Z,30.97
2022-09-02T19:30:29.195Z,31.23
2022-09-02T19:33:21.880Z,30.97
2022-09-02T19:36:04.669Z,31.28
2022-09-02T19:38:53.253Z,31.05
2022-09-02T19:41:35.827Z,31.23
2022-09-02T19:44:24.975Z,31.19
2022-09-02T19:50:18.899Z,31.17
2022-09-02T19:53:07.995Z,31.12
2022-09-02T19:55:58.911Z,31.27
2022-09-02T19:58:47.972Z,30.93
2022-09-02T20:01:30.535Z,31.11
2022-09-02T20:04:19.053Z,31.22
2022-09-02T20:07:01.920Z,31.05
2022-09-02T20:09:50.230Z,31.02
2022-09-02T20:12:39.967Z,31.11
2022-09-02T20:15:29.231Z,31.11
2022-09-02T20:18:25.278Z,30.97
2022-09-02T20:21:14.274Z,30.69
2022-09-02T20:24:13.859Z,30.91
2022-09-02T20:27:15.556Z,30.97
2022-09-02T20:30:12.503Z,31.01
2022-09-02T20:33:08.268Z,31.15
2022-09-02T20:36:28.542Z,30.95
2022-09-02T20:39:31.024Z,30.89
2022-09-02T20:42:47.919Z,30.77
2022-09-02T20:45:49.888Z,30.71
2022-09-02T20:48:55.323Z,30.98
2022-09-02T20:51:48.134Z,30.70
2022-09-02T20:54:47.521Z,30.70
2022-09-02T20:57:57.867Z,30.82
2022-09-02T21:00:40.339Z,30.88
2022-09-02T21:03:33.230Z,30.56
2022-09-02T21:06:24.987Z,30.54
2022-09-02T21:09:43.227Z,30.48
2022-09-02T21:12:46.112Z,30.61
2022-09-02T21:15:38.228Z,30.80
2022-09-02T21:18:56.885Z,30.74
2022-09-02T21:22:01.945Z,30.81
2022-09-02T21:25:18.041Z,30.90
2022-09-02T21:28:25.894Z,30.87
2022-09-02T21:31:16.309Z,30.76
2022-09-02T21:34:12.916Z,30.82
2022-09-02T21:36:59.407Z,30.78
2022-09-02T21:39:53.943Z,30.77
2022-09-02T21:43:06.983Z,30.74
2022-09-02T21:46:04.239Z,30.58
2022-09-02T21:49:04.618Z,30.62
2022-09-02T21:52:18.967Z,30.71
2022-09-02T21:55:18.312Z,30.70
2022-09-02T21:58:35.122Z,30.76
2022-09-02T22:01:44.813Z,30.67
2022-09-02T22:04:53.869Z,30.83
2022-09-02T22:07:56.595Z,30.72
2022-09-02T22:11:12.877Z,30.79
2022-09-02T22:14:01.975Z,30.74
2022-09-02T22:17:06.538Z,30.73
2022-09-02T22:19:49.893Z,30.60
2022-09-02T22:22:38.073Z,30.69
2022-09-02T22:25:30.115Z,30.69
2022-09-02T22:28:16.973Z,30.54
2022-09-02T22:31:14.918Z,30.64
2022-09-02T22:34:08.513Z,30.55
2022-09-02T22:36:57.203Z,30.59
2022-09-02T22:39:57.143Z,30.68
2022-09-02T22:42:54.113Z,30.62
2022-09-02T22:46:00.598Z,30.48
2022-09-02T22:49:12.208Z,30.32
2022-09-02T22:52:51.972Z,30.65
2022-09-02T22:56:02.125Z,30.62
2022-09-02T22:59:06.960Z,30.54
2022-09-02T23:02:20.564Z,30.56
2022-09-02T23:05:40.879Z,30.32
2022-09-02T23:08:26.178Z,30.29
2022-09-02T23:11:37.148Z,30.55
2022-09-02T23:14:48.956Z,30.52
2022-09-02T23:17:59.617Z,30.53
2022-09-02T23:21:09.960Z,30.54
2022-09-02T23:24:21.815Z,30.58
2022-09-02T23:27:15.968Z,30.54
2022-09-02T23:29:58.269Z,30.53
2022-09-02T23:33:13.863Z,30.50
2022-09-02T23:36:14.980Z,30.58
2022-09-02T23:39:07.032Z,30.48
2022-09-02T23:41:56.110Z,30.55
2022-09-02T23:44:44.913Z,30.58
2022-09-02T23:47:52.201Z,30.61
2022-09-02T23:50:52.280Z,30.56
2022-09-02T23:54:30.952Z,30.52
2022-09-02T23:57:53.975Z,30.58
